Time;durP1;ratioP1;P1;durP2;ratioP2;P2;SDS_P1;SDS_P2;PMS_P1;PMS_P2;Temp;Humidity;BMP_temperature;BMP_pressure;BME280_temperature;BME280_humidity;BME280_pressure;Samples;Min_cycle;Max_cycle;Signal;HPM_P1;HPM_P2
2023/08/16 00:00:49;;;;;;;0.00;0.00;;;;;;;;;;1732189;28;20314;-79
2023/08/16 00:01:41;;;;;;;0.00;0.00;;;;;;;;;;1730720;28;20201;-80
2023/08/16 00:02:32;;;;;;;0.00;0.00;;;;;;;;;;1732616;28;20231;-79
2023/08/16 00:03:23;;;;;;;0.00;0.00;;;;;;;;;;1732660;28;20261;-81
2023/08/16 00:04:15;;;;;;;0.00;0.00;;;;;;;;;;1732085;28;20498;-80
2023/08/16 00:05:06;;;;;;;0.00;0.00;;;;;;;;;;1733530;28;20246;-81
2023/08/16 00:05:57;;;;;;;0.00;0.00;;;;;;;;;;1733018;28;20236;-80
2023/08/16 00:06:49;;;;;;;0.00;0.00;;;;;;;;;;1734965;28;20665;-82
2023/08/16 00:07:40;;;;;;;0.00;0.00;;;;;;;;;;1735694;28;20245;-82
2023/08/16 00:08:32;;;;;;;0.00;0.00;;;;;;;;;;1735175;28;20250;-81
2023/08/16 00:09:23;;;;;;;0.00;0.00;;;;;;;;;;1735178;28;20584;-81
2023/08/16 00:10:14;;;;;;;0.00;0.00;;;;;;;;;;1734109;28;20200;-81
2023/08/16 00:11:09;;;;;;;0.00;0.00;;;;;;;;;;1734272;28;20204;-82
2023/08/16 00:12:00;;;;;;;0.00;0.00;;;;;;;;;;1734638;28;20211;-81
2023/08/16 00:12:52;;;;;;;0.00;0.00;;;;;;;;;;1735082;28;20234;-81
2023/08/16 00:13:43;;;;;;;0.00;0.00;;;;;;;;;;1734828;28;20629;-81
2023/08/16 00:14:35;;;;;;;0.00;0.00;;;;;;;;;;1735337;28;20199;-81
2023/08/16 00:15:26;;;;;;;0.00;0.00;;;;;;;;;;1734491;28;20227;-82
2023/08/16 00:16:18;;;;;;;0.00;0.00;;;;;;;;;;1735783;28;20200;-81
2023/08/16 00:17:10;;;;;;;0.00;0.00;;;;;;;;;;1735832;28;20614;-81
2023/08/16 00:18:01;;;;;;;0.00;0.00;;;;;;;;;;1736752;28;20235;-82
2023/08/16 00:18:53;;;;;;;0.00;0.00;;;;;;;;;;1736127;28;20233;-79
2023/08/16 00:19:44;;;;;;;0.00;0.00;;;;;;;;;;1736409;28;20244;-80
2023/08/16 00:20:35;;;;;;;0.00;0.00;;;;;;;;;;1736415;28;20338;-80
2023/08/16 00:21:27;;;;;;;0.00;0.00;;;;;;;;;;1736889;28;20195;-80
2023/08/16 00:22:18;;;;;;;0.00;0.00;;;;;;;;;;1737215;28;20207;-80
2023/08/16 00:23:09;;;;;;;0.00;0.00;;;;;;;;;;1737209;28;20211;-80
2023/08/16 00:24:04;;;;;;;0.00;0.00;;;;;;;;;;1735647;28;20203;-80
2023/08/16 00:24:55;;;;;;;0.00;0.00;;;;;;;;;;1736284;28;20208;-79
2023/08/16 00:25:47;;;;;;;0.00;0.00;;;;;;;;;;1735370;28;20314;-79
2023/08/16 00:26:39;;;;;;;0.00;0.00;;;;;;;;;;1742743;28;20620;-79
2023/08/16 00:27:31;;;;;;;0.00;0.00;;;;;;;;;;1734794;28;20489;-79
2023/08/16 00:28:23;;;;;;;0.00;0.00;;;;;;;;;;1732214;28;20231;-79
2023/08/16 00:29:14;;;;;;;0.00;0.00;;;;;;;;;;1732304;28;20590;-80
2023/08/16 00:30:06;;;;;;;0.00;0.00;;;;;;;;;;1733878;28;20208;-80
2023/08/16 00:30:58;;;;;;;0.00;0.00;;;;;;;;;;1730876;28;20298;-80
2023/08/16 00:31:49;;;;;;;0.00;0.00;;;;;;;;;;1730928;28;20247;-80
2023/08/16 00:32:41;;;;;;;0.00;0.00;;;;;;;;;;1735144;28;20334;-80
2023/08/16 00:33:33;;;;;;;0.00;0.00;;;;;;;;;;1735643;28;20210;-80
2023/08/16 00:34:24;;;;;;;0.00;0.00;;;;;;;;;;1734910;28;20235;-80
2023/08/16 00:35:16;;;;;;;0.00;0.00;;;;;;;;;;1734706;28;20609;-81
2023/08/16 00:36:08;;;;;;;0.00;0.00;;;;;;;;;;1731926;28;20224;-79
2023/08/16 00:36:59;;;;;;;0.00;0.00;;;;;;;;;;1732477;28;20203;-79
2023/08/16 00:37:52;;;;;;;0.00;0.00;;;;;;;;;;1735268;28;20204;-79
2023/08/16 00:38:43;;;;;;;0.00;0.00;;;;;;;;;;1735729;28;20204;-79
2023/08/16 00:39:34;;;;;;;0.00;0.00;;;;;;;;;;1735732;28;20281;-80
2023/08/16 00:40:26;;;;;;;0.00;0.00;;;;;;;;;;1734918;28;20545;-79
2023/08/16 00:41:19;;;;;;;0.00;0.00;;;;;;;;;;1730745;28;20347;-79
2023/08/16 00:42:12;;;;;;;0.00;0.00;;;;;;;;;;1733684;28;20204;-79
2023/08/16 00:43:04;;;;;;;0.00;0.00;;;;;;;;;;1735276;28;20211;-80
2023/08/16 00:43:56;;;;;;;0.00;0.00;;;;;;;;;;1735285;28;20207;-80
2023/08/16 00:44:47;;;;;;;0.00;0.00;;;;;;;;;;1736155;28;20204;-80
2023/08/16 00:45:38;;;;;;;0.00;0.00;;;;;;;;;;1728666;28;20228;-80
2023/08/16 00:46:31;;;;;;;0.00;0.00;;;;;;;;;;1728440;28;20193;-80
2023/08/16 00:47:22;;;;;;;0.00;0.00;;;;;;;;;;1734128;28;20246;-80
2023/08/16 00:48:14;;;;;;;0.00;0.00;;;;;;;;;;1735941;28;20262;-80
2023/08/16 00:49:06;;;;;;;0.00;0.00;;;;;;;;;;1734627;28;20203;-80
2023/08/16 00:49:57;;;;;;;0.00;0.00;;;;;;;;;;1735184;28;20262;-80
2023/08/16 00:50:48;;;;;;;0.00;0.00;;;;;;;;;;1734296;28;20250;-80
2023/08/16 00:51:40;;;;;;;0.00;0.00;;;;;;;;;;1734616;28;20564;-80
2023/08/16 00:52:31;;;;;;;0.00;0.00;;;;;;;;;;1735018;28;20235;-80
2023/08/16 00:53:23;;;;;;;0.00;0.00;;;;;;;;;;1733934;28;20239;-80
2023/08/16 00:54:15;;;;;;;0.00;0.00;;;;;;;;;;1734509;28;20223;-81
2023/08/16 00:55:07;;;;;;;0.00;0.00;;;;;;;;;;1735333;28;20644;-81
2023/08/16 00:55:59;;;;;;;0.00;0.00;;;;;;;;;;1731527;28;20767;-80
2023/08/16 00:56:51;;;;;;;0.00;0.00;;;;;;;;;;1730952;28;20200;-80
2023/08/16 00:57:44;;;;;;;0.00;0.00;;;;;;;;;;1736586;28;20241;-80
2023/08/16 00:58:36;;;;;;;0.00;0.00;;;;;;;;;;1736436;28;20303;-80
2023/08/16 00:59:27;;;;;;;0.00;0.00;;;;;;;;;;1735904;28;20331;-80
2023/08/16 01:00:18;;;;;;;0.00;0.00;;;;;;;;;;1727019;28;20507;-80
2023/08/16 01:01:10;;;;;;;0.00;0.00;;;;;;;;;;1735442;28;20191;-80
2023/08/16 01:02:02;;;;;;;0.00;0.00;;;;;;;;;;1735612;28;20212;-80
2023/08/16 01:02:54;;;;;;;0.00;0.00;;;;;;;;;;1732440;28;20203;-80
2023/08/16 01:03:46;;;;;;;0.00;0.00;;;;;;;;;;1734192;28;20235;-80
2023/08/16 01:04:37;;;;;;;0.00;0.00;;;;;;;;;;1734377;28;20195;-80
2023/08/16 01:05:29;;;;;;;0.00;0.00;;;;;;;;;;1733716;28;20258;-80
2023/08/16 01:06:20;;;;;;;0.00;0.00;;;;;;;;;;1728426;28;20227;-80
2023/08/16 01:07:12;;;;;;;0.00;0.00;;;;;;;;;;1732286;28;20227;-80
2023/08/16 01:08:03;;;;;;;0.00;0.00;;;;;;;;;;1734201;28;20242;-80
2023/08/16 01:08:55;;;;;;;0.00;0.00;;;;;;;;;;1735333;28;20498;-80
2023/08/16 01:09:46;;;;;;;0.00;0.00;;;;;;;;;;1737048;28;20615;-80
2023/08/16 01:10:42;;;;;;;0.00;0.00;;;;;;;;;;1734407;28;20480;-80
2023/08/16 01:11:36;;;;;;;0.00;0.00;;;;;;;;;;1730472;28;20740;-80
2023/08/16 01:12:31;;;;;;;0.00;0.00;;;;;;;;;;1730001;28;20924;-80
2023/08/16 01:13:26;;;;;;;0.00;0.00;;;;;;;;;;1735821;28;20218;-80
2023/08/16 01:14:20;;;;;;;0.00;0.00;;;;;;;;;;1737117;28;20254;-79
2023/08/16 01:15:14;;;;;;;0.00;0.00;;;;;;;;;;1737875;28;20331;-79
2023/08/16 01:16:07;;;;;;;0.00;0.00;;;;;;;;;;1729802;28;20669;-80
2023/08/16 01:16:58;;;;;;;0.00;0.00;;;;;;;;;;1730753;28;20506;-80
2023/08/16 01:17:51;;;;;;;0.00;0.00;;;;;;;;;;1734170;28;20545;-80
2023/08/16 01:18:42;;;;;;;0.00;0.00;;;;;;;;;;1734380;28;20210;-80
2023/08/16 01:19:34;;;;;;;0.00;0.00;;;;;;;;;;1733923;28;20195;-80
2023/08/16 01:20:28;;;;;;;0.00;0.00;;;;;;;;;;1732910;28;20294;-80
2023/08/16 01:21:20;;;;;;;0.00;0.00;;;;;;;;;;1738231;28;20230;-80
2023/08/16 01:22:15;;;;;;;0.00;0.00;;;;;;;;;;1739615;28;20211;-80
2023/08/16 01:23:07;;;;;;;0.00;0.00;;;;;;;;;;1734223;28;20196;-80
2023/08/16 01:24:05;;;;;;;0.00;0.00;;;;;;;;;;1734861;28;20258;-80
2023/08/16 01:25:08;;;;;;;0.00;0.00;;;;;;;;;;1737070;28;20208;-80
2023/08/16 01:26:06;;;;;;;0.00;0.00;;;;;;;;;;1735279;28;20251;-80
2023/08/16 01:27:00;;;;;;;0.00;0.00;;;;;;;;;;1736531;28;20538;-80
2023/08/16 01:27:52;;;;;;;0.00;0.00;;;;;;;;;;1735044;28;20314;-80
2023/08/16 01:28:44;;;;;;;0.00;0.00;;;;;;;;;;1735574;28;20210;-80
2023/08/16 01:29:35;;;;;;;0.00;0.00;;;;;;;;;;1736127;28;20651;-79
2023/08/16 01:30:27;;;;;;;0.00;0.00;;;;;;;;;;1731819;28;20195;-80
2023/08/16 01:31:19;;;;;;;0.00;0.00;;;;;;;;;;1732593;28;20199;-79
2023/08/16 01:32:10;;;;;;;0.00;0.00;;;;;;;;;;1733989;28;20204;-78
2023/08/16 01:33:08;;;;;;;0.00;0.00;;;;;;;;;;1732770;28;20523;-79
2023/08/16 01:34:00;;;;;;;0.00;0.00;;;;;;;;;;1735257;28;20629;-80
2023/08/16 01:34:51;;;;;;;0.00;0.00;;;;;;;;;;1736956;28;20238;-79
2023/08/16 01:35:44;;;;;;;0.00;0.00;;;;;;;;;;1731922;28;20673;-80
2023/08/16 01:36:35;;;;;;;0.00;0.00;;;;;;;;;;1740662;28;20352;-79
2023/08/16 01:37:26;;;;;;;0.00;0.00;;;;;;;;;;1734020;28;20588;-79
2023/08/16 01:38:18;;;;;;;0.00;0.00;;;;;;;;;;1734257;28;20261;-79
2023/08/16 01:39:09;;;;;;;0.00;0.00;;;;;;;;;;1734197;28;20250;-79
2023/08/16 01:40:03;;;;;;;0.00;0.00;;;;;;;;;;1738423;28;20198;-79
2023/08/16 01:40:56;;;;;;;0.00;0.00;;;;;;;;;;1731978;28;20242;-78
2023/08/16 01:41:50;;;;;;;0.00;0.00;;;;;;;;;;1733748;28;20227;-78
2023/08/16 01:42:45;;;;;;;0.00;0.00;;;;;;;;;;1735165;28;20221;-78
2023/08/16 01:43:36;;;;;;;0.00;0.00;;;;;;;;;;1732650;28;20250;-79
2023/08/16 01:44:29;;;;;;;0.00;0.00;;;;;;;;;;1733371;28;20200;-79
2023/08/16 01:45:21;;;;;;;0.00;0.00;;;;;;;;;;1729815;28;20270;-79
2023/08/16 01:46:13;;;;;;;0.00;0.00;;;;;;;;;;1730295;28;20211;-79
2023/08/16 01:47:04;;;;;;;0.00;0.00;;;;;;;;;;1733886;28;20227;-79
2023/08/16 01:47:57;;;;;;;0.00;0.00;;;;;;;;;;1733223;28;20200;-79
2023/08/16 01:48:49;;;;;;;0.00;0.00;;;;;;;;;;1734218;28;20195;-79
2023/08/16 01:49:41;;;;;;;0.00;0.00;;;;;;;;;;1733500;28;20581;-79
2023/08/16 01:50:34;;;;;;;0.00;0.00;;;;;;;;;;1733322;28;20231;-79
2023/08/16 01:51:25;;;;;;;0.00;0.00;;;;;;;;;;1732866;28;20605;-79
2023/08/16 01:52:17;;;;;;;0.00;0.00;;;;;;;;;;1734018;28;20203;-79
2023/08/16 01:53:08;;;;;;;0.00;0.00;;;;;;;;;;1733256;28;20330;-80
2023/08/16 01:54:00;;;;;;;0.00;0.00;;;;;;;;;;1733208;28;20227;-80
2023/08/16 01:54:52;;;;;;;0.00;0.00;;;;;;;;;;1739556;28;20254;-80
2023/08/16 01:55:43;;;;;;;0.00;0.00;;;;;;;;;;1732430;28;20642;-80
2023/08/16 01:56:34;;;;;;;0.00;0.00;;;;;;;;;;1734383;28;20688;-79
2023/08/16 01:57:26;;;;;;;0.00;0.00;;;;;;;;;;1733438;28;20203;-79
2023/08/16 01:58:18;;;;;;;0.00;0.00;;;;;;;;;;1733852;28;20207;-79
2023/08/16 01:59:10;;;;;;;0.00;0.00;;;;;;;;;;1734902;28;20227;-79
2023/08/16 02:00:06;;;;;;;0.00;0.00;;;;;;;;;;1733616;28;20354;-80
2023/08/16 02:00:57;;;;;;;0.00;0.00;;;;;;;;;;1732200;28;20755;-79
2023/08/16 02:01:49;;;;;;;0.00;0.00;;;;;;;;;;1730613;28;20211;-80
2023/08/16 02:02:40;;;;;;;0.00;0.00;;;;;;;;;;1734630;28;20264;-79
2023/08/16 02:03:33;;;;;;;0.00;0.00;;;;;;;;;;1733691;28;20227;-80
2023/08/16 02:04:24;;;;;;;0.00;0.00;;;;;;;;;;1734867;28;20609;-79
2023/08/16 02:05:15;;;;;;;0.00;0.00;;;;;;;;;;1731029;28;20210;-80
2023/08/16 02:06:07;;;;;;;0.00;0.00;;;;;;;;;;1728250;28;20232;-80
2023/08/16 02:06:58;;;;;;;0.00;0.00;;;;;;;;;;1733794;28;20616;-79
2023/08/16 02:07:49;;;;;;;0.00;0.00;;;;;;;;;;1733168;28;20220;-79
2023/08/16 02:08:41;;;;;;;0.00;0.00;;;;;;;;;;1733918;28;20199;-79
2023/08/16 02:09:32;;;;;;;0.00;0.00;;;;;;;;;;1733097;28;20716;-78
2023/08/16 02:10:23;;;;;;;0.00;0.00;;;;;;;;;;1732379;28;20206;-80
2023/08/16 02:11:15;;;;;;;0.00;0.00;;;;;;;;;;1732931;28;20314;-79
2023/08/16 02:12:07;;;;;;;0.00;0.00;;;;;;;;;;1730318;28;20307;-78
2023/08/16 02:12:58;;;;;;;0.00;0.00;;;;;;;;;;1732083;28;20566;-78
2023/08/16 02:13:52;;;;;;;0.00;0.00;;;;;;;;;;1739263;28;20199;-78
2023/08/16 02:14:43;;;;;;;0.00;0.00;;;;;;;;;;1735974;28;20203;-78
2023/08/16 02:15:35;;;;;;;0.00;0.00;;;;;;;;;;1732667;28;20207;-79
2023/08/16 02:16:26;;;;;;;0.00;0.00;;;;;;;;;;1732462;28;20207;-78
2023/08/16 02:17:18;;;;;;;0.00;0.00;;;;;;;;;;1733434;28;20200;-79
2023/08/16 02:18:10;;;;;;;0.00;0.00;;;;;;;;;;1734775;28;20262;-78
2023/08/16 02:19:02;;;;;;;0.00;0.00;;;;;;;;;;1732309;28;20208;-78
2023/08/16 02:19:53;;;;;;;0.00;0.00;;;;;;;;;;1733762;28;20648;-78
2023/08/16 02:20:45;;;;;;;0.00;0.00;;;;;;;;;;1731744;28;20306;-79
2023/08/16 02:21:36;;;;;;;0.00;0.00;;;;;;;;;;1727731;28;20251;-79
2023/08/16 02:22:27;;;;;;;0.00;0.00;;;;;;;;;;1726780;28;20203;-79
2023/08/16 02:23:19;;;;;;;0.00;0.00;;;;;;;;;;1727953;28;20197;-79
2023/08/16 02:24:11;;;;;;;0.00;0.00;;;;;;;;;;1731734;28;20208;-79
2023/08/16 02:25:07;;;;;;;0.00;0.00;;;;;;;;;;1731047;28;20240;-79
2023/08/16 02:25:58;;;;;;;0.00;0.00;;;;;;;;;;1730227;28;20319;-79
2023/08/16 02:26:50;;;;;;;0.00;0.00;;;;;;;;;;1729035;28;20200;-78
2023/08/16 02:27:41;;;;;;;0.00;0.00;;;;;;;;;;1732873;28;20830;-77
2023/08/16 02:28:33;;;;;;;0.00;0.00;;;;;;;;;;1733085;28;20227;-78
2023/08/16 02:29:26;;;;;;;0.00;0.00;;;;;;;;;;1734017;28;20896;-78
2023/08/16 02:30:18;;;;;;;0.00;0.00;;;;;;;;;;1736480;28;20238;-79
2023/08/16 02:31:09;;;;;;;0.00;0.00;;;;;;;;;;1732624;28;20258;-79
2023/08/16 02:32:00;;;;;;;0.00;0.00;;;;;;;;;;1729903;28;20200;-79
2023/08/16 02:32:52;;;;;;;0.00;0.00;;;;;;;;;;1735164;28;20204;-79
2023/08/16 02:33:43;;;;;;;0.00;0.00;;;;;;;;;;1733832;28;20667;-79
2023/08/16 02:34:35;;;;;;;0.00;0.00;;;;;;;;;;1732171;28;20494;-79
2023/08/16 02:35:26;;;;;;;0.00;0.00;;;;;;;;;;1733435;28;20254;-79
2023/08/16 02:36:18;;;;;;;0.00;0.00;;;;;;;;;;1732344;28;20279;-78
2023/08/16 02:37:09;;;;;;;0.00;0.00;;;;;;;;;;1733614;28;20246;-79
2023/08/16 02:38:00;;;;;;;0.00;0.00;;;;;;;;;;1731105;28;20230;-78
2023/08/16 02:38:53;;;;;;;0.00;0.00;;;;;;;;;;1734731;28;20385;-79
2023/08/16 02:39:44;;;;;;;0.00;0.00;;;;;;;;;;1734045;28;20199;-79
2023/08/16 02:40:36;;;;;;;0.00;0.00;;;;;;;;;;1732571;28;20235;-79
2023/08/16 02:41:28;;;;;;;0.00;0.00;;;;;;;;;;1735691;28;20581;-79
2023/08/16 02:42:19;;;;;;;0.00;0.00;;;;;;;;;;1733045;28;20531;-78
2023/08/16 02:43:10;;;;;;;0.00;0.00;;;;;;;;;;1732696;28;20519;-79
2023/08/16 02:44:02;;;;;;;0.00;0.00;;;;;;;;;;1732860;28;20226;-79
2023/08/16 02:44:55;;;;;;;0.00;0.00;;;;;;;;;;1734171;28;20628;-78
2023/08/16 02:45:46;;;;;;;0.00;0.00;;;;;;;;;;1725421;28;20298;-78
2023/08/16 02:46:38;;;;;;;0.00;0.00;;;;;;;;;;1726324;28;20610;-77
2023/08/16 02:47:29;;;;;;;0.00;0.00;;;;;;;;;;1733350;28;20602;-77
2023/08/16 02:48:20;;;;;;;0.00;0.00;;;;;;;;;;1732587;28;20223;-77
2023/08/16 02:49:12;;;;;;;0.00;0.00;;;;;;;;;;1731916;28;20290;-77
2023/08/16 02:50:03;;;;;;;0.00;0.00;;;;;;;;;;1729804;28;20207;-77
2023/08/16 02:50:55;;;;;;;0.00;0.00;;;;;;;;;;1729385;28;20736;-77
2023/08/16 02:51:46;;;;;;;0.00;0.00;;;;;;;;;;1727244;28;20686;-77
2023/08/16 02:52:39;;;;;;;0.00;0.00;;;;;;;;;;1728100;28;20203;-77
2023/08/16 02:53:30;;;;;;;0.00;0.00;;;;;;;;;;1732075;28;20239;-77
2023/08/16 02:54:21;;;;;;;0.00;0.00;;;;;;;;;;1731609;28;20270;-77
2023/08/16 02:55:13;;;;;;;0.00;0.00;;;;;;;;;;1734499;28;20530;-77
2023/08/16 02:56:04;;;;;;;0.00;0.00;;;;;;;;;;1728142;28;20352;-78
2023/08/16 02:56:55;;;;;;;0.00;0.00;;;;;;;;;;1728334;28;20205;-77
2023/08/16 02:57:47;;;;;;;0.00;0.00;;;;;;;;;;1732143;28;20214;-77
2023/08/16 02:58:38;;;;;;;0.00;0.00;;;;;;;;;;1731674;28;20668;-77
2023/08/16 02:59:39;;;;;;;0.00;0.00;;;;;;;;;;1732078;28;20207;-79
2023/08/16 03:00:32;;;;;;;0.00;0.00;;;;;;;;;;1730466;28;20238;-78
2023/08/16 03:01:23;;;;;;;0.00;0.00;;;;;;;;;;1726717;28;20208;-77
2023/08/16 03:02:16;;;;;;;0.00;0.00;;;;;;;;;;1731049;28;20638;-77
2023/08/16 03:03:07;;;;;;;0.00;0.00;;;;;;;;;;1731984;28;20419;-77
2023/08/16 03:03:59;;;;;;;0.00;0.00;;;;;;;;;;1732293;28;20208;-77
2023/08/16 03:04:50;;;;;;;0.00;0.00;;;;;;;;;;1732093;28;20245;-78
2023/08/16 03:05:42;;;;;;;0.00;0.00;;;;;;;;;;1731456;28;20326;-78
2023/08/16 03:06:33;;;;;;;0.00;0.00;;;;;;;;;;1725580;28;20304;-79
2023/08/16 03:07:25;;;;;;;0.00;0.00;;;;;;;;;;1732255;28;20628;-78
2023/08/16 03:08:16;;;;;;;0.00;0.00;;;;;;;;;;1735117;28;20250;-78
2023/08/16 03:09:09;;;;;;;0.00;0.00;;;;;;;;;;1731969;28;20249;-78
2023/08/16 03:10:00;;;;;;;0.00;0.00;;;;;;;;;;1732137;28;20211;-78
2023/08/16 03:10:51;;;;;;;0.00;0.00;;;;;;;;;;1730106;28;20227;-78
2023/08/16 03:11:43;;;;;;;0.00;0.00;;;;;;;;;;1723375;28;20200;-78
2023/08/16 03:12:34;;;;;;;0.00;0.00;;;;;;;;;;1727820;28;20238;-79
2023/08/16 03:13:26;;;;;;;0.00;0.00;;;;;;;;;;1726291;28;20291;-78
2023/08/16 03:14:17;;;;;;;0.00;0.00;;;;;;;;;;1724452;28;20622;-78
2023/08/16 03:15:09;;;;;;;0.00;0.00;;;;;;;;;;1730307;28;20210;-78
2023/08/16 03:16:02;;;;;;;0.00;0.00;;;;;;;;;;1727821;28;20405;-77
2023/08/16 03:16:53;;;;;;;0.00;0.00;;;;;;;;;;1725795;28;20243;-76
2023/08/16 03:17:45;;;;;;;0.00;0.00;;;;;;;;;;1727865;28;20638;-76
2023/08/16 03:18:36;;;;;;;0.00;0.00;;;;;;;;;;1732422;28;20238;-76
2023/08/16 03:19:28;;;;;;;0.00;0.00;;;;;;;;;;1731338;28;20261;-76
2023/08/16 03:20:19;;;;;;;0.00;0.00;;;;;;;;;;1728290;28;20247;-75
2023/08/16 03:21:11;;;;;;;0.00;0.00;;;;;;;;;;1729538;28;20645;-75
2023/08/16 03:22:02;;;;;;;0.00;0.00;;;;;;;;;;1732228;28;20242;-76
2023/08/16 03:22:53;;;;;;;0.00;0.00;;;;;;;;;;1731965;28;20204;-75
2023/08/16 03:23:45;;;;;;;0.00;0.00;;;;;;;;;;1732366;28;20989;-74
2023/08/16 03:24:36;;;;;;;0.00;0.00;;;;;;;;;;1731958;28;20241;-74
2023/08/16 03:25:28;;;;;;;0.00;0.00;;;;;;;;;;1731470;28;20580;-76
2023/08/16 03:26:19;;;;;;;0.00;0.00;;;;;;;;;;1726848;28;20972;-76
2023/08/16 03:27:10;;;;;;;0.00;0.00;;;;;;;;;;1730268;28;20202;-76
2023/08/16 03:28:02;;;;;;;0.00;0.00;;;;;;;;;;1731117;28;20239;-76
2023/08/16 03:28:53;;;;;;;0.00;0.00;;;;;;;;;;1732512;28;20322;-76
2023/08/16 03:29:45;;;;;;;0.00;0.00;;;;;;;;;;1732518;28;20203;-76
2023/08/16 03:30:37;;;;;;;0.00;0.00;;;;;;;;;;1732049;28;20203;-76
2023/08/16 03:31:29;;;;;;;0.00;0.00;;;;;;;;;;1731579;28;20238;-75
2023/08/16 03:32:21;;;;;;;0.00;0.00;;;;;;;;;;1732219;28;20200;-75
2023/08/16 03:33:12;;;;;;;0.00;0.00;;;;;;;;;;1728914;28;20303;-75
2023/08/16 03:34:03;;;;;;;0.00;0.00;;;;;;;;;;1725796;28;20208;-75
2023/08/16 03:34:55;;;;;;;0.00;0.00;;;;;;;;;;1728358;28;20512;-75
2023/08/16 03:35:46;;;;;;;0.00;0.00;;;;;;;;;;1730578;28;20647;-76
2023/08/16 03:36:38;;;;;;;0.00;0.00;;;;;;;;;;1725820;28;20315;-77
2023/08/16 03:37:31;;;;;;;0.00;0.00;;;;;;;;;;1725988;28;20272;-77
2023/08/16 03:38:23;;;;;;;0.00;0.00;;;;;;;;;;1731630;28;20542;-77
2023/08/16 03:39:14;;;;;;;0.00;0.00;;;;;;;;;;1731858;28;20302;-76
2023/08/16 03:40:06;;;;;;;0.00;0.00;;;;;;;;;;1733500;28;20686;-77
2023/08/16 03:40:58;;;;;;;0.00;0.00;;;;;;;;;;1731120;28;20274;-76
2023/08/16 03:41:49;;;;;;;0.00;0.00;;;;;;;;;;1727136;28;20634;-77
2023/08/16 03:42:41;;;;;;;0.00;0.00;;;;;;;;;;1727954;28;20218;-76
2023/08/16 03:43:33;;;;;;;0.00;0.00;;;;;;;;;;1733644;28;20298;-77
2023/08/16 03:44:24;;;;;;;0.00;0.00;;;;;;;;;;1733111;28;20607;-76
2023/08/16 03:45:16;;;;;;;0.00;0.00;;;;;;;;;;1730672;28;20204;-77
2023/08/16 03:46:07;;;;;;;0.00;0.00;;;;;;;;;;1726191;28;20776;-77
2023/08/16 03:46:59;;;;;;;0.00;0.00;;;;;;;;;;1726756;28;20243;-77
2023/08/16 03:47:53;;;;;;;0.00;0.00;;;;;;;;;;1729630;28;20976;-77
2023/08/16 03:48:44;;;;;;;0.00;0.00;;;;;;;;;;1733641;28;20200;-77
2023/08/16 03:49:36;;;;;;;0.00;0.00;;;;;;;;;;1733125;28;20203;-77
2023/08/16 03:50:27;;;;;;;0.00;0.00;;;;;;;;;;1732870;28;20748;-77
2023/08/16 03:51:18;;;;;;;0.00;0.00;;;;;;;;;;1728053;28;20195;-77
2023/08/16 03:52:10;;;;;;;0.00;0.00;;;;;;;;;;1726887;28;20204;-77
2023/08/16 03:53:01;;;;;;;0.00;0.00;;;;;;;;;;1729534;28;20271;-77
2023/08/16 03:53:53;;;;;;;0.00;0.00;;;;;;;;;;1733713;28;20195;-77
2023/08/16 03:54:44;;;;;;;0.00;0.00;;;;;;;;;;1733284;28;20231;-77
2023/08/16 03:55:36;;;;;;;0.00;0.00;;;;;;;;;;1732982;28;20239;-76
2023/08/16 03:56:28;;;;;;;0.00;0.00;;;;;;;;;;1733185;28;20238;-76
2023/08/16 03:57:19;;;;;;;0.00;0.00;;;;;;;;;;1733441;28;20195;-76
2023/08/16 03:58:11;;;;;;;0.00;0.00;;;;;;;;;;1730963;28;20209;-76
2023/08/16 03:59:02;;;;;;;0.00;0.00;;;;;;;;;;1726727;28;20299;-76
2023/08/16 03:59:54;;;;;;;0.00;0.00;;;;;;;;;;1729391;28;20684;-76
2023/08/16 04:00:47;;;;;;;0.00;0.00;;;;;;;;;;1731680;28;20701;-77
2023/08/16 04:01:38;;;;;;;0.00;0.00;;;;;;;;;;1726508;28;20208;-77
2023/08/16 04:02:32;;;;;;;0.00;0.00;;;;;;;;;;1726997;28;20207;-77
2023/08/16 04:03:23;;;;;;;0.00;0.00;;;;;;;;;;1733202;28;20231;-76
2023/08/16 04:04:14;;;;;;;0.00;0.00;;;;;;;;;;1729856;28;20299;-77
2023/08/16 04:05:09;;;;;;;0.00;0.00;;;;;;;;;;1732306;28;20648;-76
2023/08/16 04:06:00;;;;;;;0.00;0.00;;;;;;;;;;1725952;28;20243;-76
2023/08/16 04:06:52;;;;;;;0.00;0.00;;;;;;;;;;1725597;28;20243;-76
2023/08/16 04:07:43;;;;;;;0.00;0.00;;;;;;;;;;1726652;28;20215;-76
2023/08/16 04:08:35;;;;;;;0.00;0.00;;;;;;;;;;1733938;28;20204;-76
2023/08/16 04:09:26;;;;;;;0.00;0.00;;;;;;;;;;1733128;28;20251;-75
2023/08/16 04:10:17;;;;;;;0.00;0.00;;;;;;;;;;1732678;28;20525;-75
2023/08/16 04:11:09;;;;;;;0.00;0.00;;;;;;;;;;1729388;28;20200;-75
2023/08/16 04:12:00;;;;;;;0.00;0.00;;;;;;;;;;1726770;28;20290;-76
2023/08/16 04:12:52;;;;;;;0.00;0.00;;;;;;;;;;1728401;28;20196;-76
2023/08/16 04:13:43;;;;;;;0.00;0.00;;;;;;;;;;1727953;28;20262;-76
2023/08/16 04:14:34;;;;;;;0.00;0.00;;;;;;;;;;1732546;28;20855;-76
2023/08/16 04:15:26;;;;;;;0.00;0.00;;;;;;;;;;1735250;28;20211;-76
2023/08/16 04:16:18;;;;;;;0.00;0.00;;;;;;;;;;1732529;28;20686;-76
2023/08/16 04:17:09;;;;;;;0.00;0.00;;;;;;;;;;1733546;28;20281;-76
2023/08/16 04:18:02;;;;;;;0.00;0.00;;;;;;;;;;1732386;28;20222;-76
2023/08/16 04:18:54;;;;;;;0.00;0.00;;;;;;;;;;1733432;28;20319;-76
2023/08/16 04:19:45;;;;;;;0.00;0.00;;;;;;;;;;1736511;28;20256;-76
2023/08/16 04:20:37;;;;;;;0.00;0.00;;;;;;;;;;1732654;28;20560;-76
2023/08/16 04:21:28;;;;;;;0.00;0.00;;;;;;;;;;1732222;28;20290;-77
2023/08/16 04:22:19;;;;;;;0.00;0.00;;;;;;;;;;1733265;28;20647;-77
2023/08/16 04:23:11;;;;;;;0.00;0.00;;;;;;;;;;1732295;28;20300;-77
2023/08/16 04:24:03;;;;;;;0.00;0.00;;;;;;;;;;1733218;28;20246;-76
2023/08/16 04:24:54;;;;;;;0.00;0.00;;;;;;;;;;1735361;28;20200;-77
2023/08/16 04:25:46;;;;;;;0.00;0.00;;;;;;;;;;1726487;28;20236;-77
2023/08/16 04:26:37;;;;;;;0.00;0.00;;;;;;;;;;1727173;28;20214;-77
2023/08/16 04:27:28;;;;;;;0.00;0.00;;;;;;;;;;1732881;28;20204;-77
2023/08/16 04:28:20;;;;;;;0.00;0.00;;;;;;;;;;1733213;28;20565;-77
2023/08/16 04:29:11;;;;;;;0.00;0.00;;;;;;;;;;1732589;28;20207;-77
2023/08/16 04:30:06;;;;;;;0.00;0.00;;;;;;;;;;1735896;28;20293;-77
2023/08/16 04:30:59;;;;;;;0.00;0.00;;;;;;;;;;1731243;28;20239;-76
2023/08/16 04:31:50;;;;;;;0.00;0.00;;;;;;;;;;1731060;28;20247;-76
2023/08/16 04:32:41;;;;;;;0.00;0.00;;;;;;;;;;1732813;28;20303;-76
2023/08/16 04:33:35;;;;;;;0.00;0.00;;;;;;;;;;1732925;28;20227;-74
2023/08/16 04:34:26;;;;;;;0.00;0.00;;;;;;;;;;1735066;28;20211;-76
2023/08/16 04:35:18;;;;;;;0.00;0.00;;;;;;;;;;1733784;28;20609;-76
2023/08/16 04:36:09;;;;;;;0.00;0.00;;;;;;;;;;1733987;28;20222;-76
2023/08/16 04:37:01;;;;;;;0.00;0.00;;;;;;;;;;1733336;28;20250;-76
2023/08/16 04:37:52;;;;;;;0.00;0.00;;;;;;;;;;1732901;28;20299;-76
2023/08/16 04:38:44;;;;;;;0.00;0.00;;;;;;;;;;1733519;28;20234;-76
2023/08/16 04:39:35;;;;;;;0.00;0.00;;;;;;;;;;1732749;28;20238;-76
2023/08/16 04:40:27;;;;;;;0.00;0.00;;;;;;;;;;1732749;28;20213;-77
2023/08/16 04:41:18;;;;;;;0.00;0.00;;;;;;;;;;1732758;28;20261;-77
2023/08/16 04:42:10;;;;;;;0.00;0.00;;;;;;;;;;1733137;28;20286;-77
2023/08/16 04:43:01;;;;;;;0.00;0.00;;;;;;;;;;1734046;28;20237;-77
2023/08/16 04:43:52;;;;;;;0.00;0.00;;;;;;;;;;1733350;28;21076;-77
2023/08/16 04:44:44;;;;;;;0.00;0.00;;;;;;;;;;1732854;28;20207;-77
2023/08/16 04:45:35;;;;;;;0.00;0.00;;;;;;;;;;1733328;28;20322;-76
2023/08/16 04:46:26;;;;;;;0.00;0.00;;;;;;;;;;1731939;28;20199;-76
2023/08/16 04:47:18;;;;;;;0.00;0.00;;;;;;;;;;1733569;28;20596;-77
2023/08/16 04:48:09;;;;;;;0.00;0.00;;;;;;;;;;1735866;28;20823;-78
2023/08/16 04:49:03;;;;;;;0.00;0.00;;;;;;;;;;1733434;28;20214;-77
2023/08/16 04:49:54;;;;;;;0.00;0.00;;;;;;;;;;1735797;28;20285;-77
2023/08/16 04:50:45;;;;;;;0.00;0.00;;;;;;;;;;1732193;28;20234;-77
2023/08/16 04:51:37;;;;;;;0.00;0.00;;;;;;;;;;1732005;28;20203;-77
2023/08/16 04:52:28;;;;;;;0.00;0.00;;;;;;;;;;1728769;28;20310;-76
2023/08/16 04:53:20;;;;;;;0.00;0.00;;;;;;;;;;1733099;28;20322;-76
2023/08/16 04:54:11;;;;;;;0.00;0.00;;;;;;;;;;1733646;28;20245;-76
2023/08/16 04:55:06;;;;;;;0.00;0.00;;;;;;;;;;1733670;28;20230;-76
2023/08/16 04:55:57;;;;;;;0.00;0.00;;;;;;;;;;1730519;28;20582;-77
2023/08/16 04:56:49;;;;;;;0.00;0.00;;;;;;;;;;1726644;28;20557;-78
2023/08/16 04:57:41;;;;;;;0.00;0.00;;;;;;;;;;1727254;28;20203;-77
2023/08/16 04:58:33;;;;;;;0.00;0.00;;;;;;;;;;1733196;28;20286;-77
2023/08/16 04:59:24;;;;;;;0.00;0.00;;;;;;;;;;1733047;28;20199;-79
2023/08/16 05:00:16;;;;;;;0.00;0.00;;;;;;;;;;1733615;28;20200;-78
2023/08/16 05:01:07;;;;;;;0.00;0.00;;;;;;;;;;1730098;28;20235;-78
2023/08/16 05:01:58;;;;;;;0.00;0.00;;;;;;;;;;1726184;28;20204;-79
2023/08/16 05:02:50;;;;;;;0.00;0.00;;;;;;;;;;1728977;28;20211;-77
2023/08/16 05:03:48;;;;;;;0.00;0.00;;;;;;;;;;1733256;28;20303;-76
2023/08/16 05:04:41;;;;;;;0.00;0.00;;;;;;;;;;1731092;28;20292;-76
2023/08/16 05:05:32;;;;;;;0.00;0.00;;;;;;;;;;1732632;28;20323;-77
2023/08/16 05:06:23;;;;;;;0.00;0.00;;;;;;;;;;1728421;28;20207;-76
2023/08/16 05:07:15;;;;;;;0.00;0.00;;;;;;;;;;1726562;28;20208;-77
2023/08/16 05:08:06;;;;;;;0.00;0.00;;;;;;;;;;1734170;28;20548;-76
2023/08/16 05:08:57;;;;;;;0.00;0.00;;;;;;;;;;1733564;28;20216;-76
2023/08/16 05:09:49;;;;;;;0.00;0.00;;;;;;;;;;1734346;28;20630;-77
2023/08/16 05:10:41;;;;;;;0.00;0.00;;;;;;;;;;1732396;28;20373;-76
2023/08/16 05:11:33;;;;;;;0.00;0.00;;;;;;;;;;1726347;28;20196;-76